This is the latest recevied weather packets stored in our database for station/object W6UA-13. If no packets are shown the sender has not sent any weather packets the latest 10 day(s).
| Time | Temp. | Humidity | Pressure | Rain* | Wind** | Luminosity | Snow |
|---|---|---|---|---|---|---|---|
| 1777515591 | 16.11° C | 68% | 1015.4 hPa | 0 mm | - | 23 W/m² | - |
| 1777514691 | 17.22° C | 63% | 1015.6 hPa | 0 mm | - | 60 W/m² | - |
| 1777513791 | 17.78° C | 60% | 1015.5 hPa | 0 mm | - | 120 W/m² | - |
| 1777512891 | 18.89° C | 59% | 1015.7 hPa | 0 mm | - | 165 W/m² | - |
| 1777511991 | 19.44° C | 58% | 1015.8 hPa | 0 mm | - | 179 W/m² | - |
| 1777509291 | 21.67° C | 49% | 1015.5 hPa | 0 mm | - | 279 W/m² | - |
| 1777507118 | 23.89° C | 41% | 1015.5 hPa | 0 mm | - | 524 W/m² | - |
| 1777491292 | 20° C | 57% | 1016.6 hPa | 0 mm | - | 875 W/m² | - |
| 1777490392 | 20° C | 58% | 1016.9 hPa | 0 mm | - | 867 W/m² | - |
| 1777489492 | 21.11° C | 56% | 1016.9 hPa | 0 mm | - | 854 W/m² | - |
| 1777488592 | 21.11° C | 57% | 1017 hPa | 0 mm | - | 835 W/m² | - |
| 1777487692 | 21.11° C | 56% | 1017.2 hPa | 0 mm | - | 816 W/m² | - |
| 1777486792 | 21.11° C | 55% | 1017 hPa | 0 mm | - | 795 W/m² | - |
| 1777484092 | 19.44° C | 61% | 1017.3 hPa | 0 mm | - | 708 W/m² | - |
| 1777480492 | 18.89° C | 65% | 1017 hPa | 0 mm | - | 550 W/m² | - |
| 1777468792 | 7.78° C | 88% | 1016.9 hPa | 0 mm | - | 0 W/m² | - |
| 1777467892 | 7.78° C | 87% | 1016.8 hPa | 0 mm | - | 0 W/m² | - |
| 1777466092 | 7.78° C | 88% | 1016.9 hPa | 0 mm | - | 0 W/m² | - |
| 1777465192 | 7.78° C | 87% | 1016.9 hPa | 0 mm | - | 0 W/m² | - |
| 1777462492 | 7.78° C | 87% | 1017 hPa | 0 mm | - | 0 W/m² | - |
| 1777461592 | 7.78° C | 87% | 1017.1 hPa | 0 mm | - | 0 W/m² | - |
| 1777458892 | 8.33° C | 87% | 1016.7 hPa | 0 mm | - | 0 W/m² | - |
| 1777457992 | 8.33° C | 87% | 1016.4 hPa | 0 mm | - | 0 W/m² | - |
| 1777455292 | 8.33° C | 86% | 1016.8 hPa | 0 mm | - | 0 W/m² | - |
| 1777454392 | 8.89° C | 86% | 1016.9 hPa | 0 mm | - | 0 W/m² | - |
* Rain latest hour (hover to see other rain measurements)
** Current wind speed in m/s (hover to see current wind gust speed)